Time;durP1;ratioP1;P1;durP2;ratioP2;P2;SDS_P1;SDS_P2;PMS_P1;PMS_P2;Temp;Humidity;BMP_temperature;BMP_pressure;BME280_temperature;BME280_humidity;BME280_pressure;Samples;Min_cycle;Max_cycle;Signal;HPM_P1;HPM_P2
2023/08/06 00:01:51;;;;;;;23.20;12.75;;;13.70;99.90;;;;;;5092239;28;20078;-75
2023/08/06 00:04:17;;;;;;;18.33;12.35;;;13.70;99.90;;;;;;5115374;28;20043;-76
2023/08/06 00:06:42;;;;;;;21.77;13.32;;;13.70;99.90;;;;;;5115382;28;20146;-75
2023/08/06 00:09:08;;;;;;;20.38;13.30;;;13.70;99.90;;;;;;5103989;28;20046;-76
2023/08/06 00:11:34;;;;;;;18.75;12.45;;;13.70;99.90;;;;;;5107408;28;20122;-76
2023/08/06 00:13:59;;;;;;;24.73;13.20;;;13.70;99.90;;;;;;5115133;28;20043;-76
2023/08/06 00:16:25;;;;;;;19.10;12.38;;;13.70;99.90;;;;;;5113622;28;20043;-75
2023/08/06 00:18:51;;;;;;;24.42;13.25;;;13.70;99.90;;;;;;5109567;28;20498;-75
2023/08/06 00:21:16;;;;;;;26.02;13.10;;;13.70;99.90;;;;;;5111388;28;20127;-75
2023/08/06 00:23:42;;;;;;;20.50;12.60;;;13.70;99.90;;;;;;5113196;28;20104;-76
2023/08/06 00:26:07;;;;;;;18.73;12.32;;;13.70;99.90;;;;;;5113803;28;20039;-75
2023/08/06 00:28:33;;;;;;;18.73;12.70;;;13.70;99.90;;;;;;5112316;28;20046;-75
2023/08/06 00:30:59;;;;;;;19.58;12.65;;;13.70;99.90;;;;;;5094745;28;20405;-75
2023/08/06 00:33:25;;;;;;;20.40;13.32;;;13.60;99.90;;;;;;5112304;28;20397;-75
2023/08/06 00:35:51;;;;;;;18.80;12.32;;;13.60;99.90;;;;;;5111117;28;20104;-75
2023/08/06 00:38:16;;;;;;;20.50;12.73;;;13.70;99.90;;;;;;5111863;28;20047;-75
2023/08/06 00:40:42;;;;;;;29.73;12.95;;;13.70;99.90;;;;;;5108380;28;20044;-75
2023/08/06 00:43:08;;;;;;;23.52;13.43;;;13.70;99.90;;;;;;5114464;28;20055;-76
2023/08/06 00:45:35;;;;;;;17.77;11.95;;;13.70;99.90;;;;;;5111462;28;20389;-76
2023/08/06 00:48:02;;;;;;;20.15;13.05;;;13.60;99.90;;;;;;5093759;28;20036;-76
2023/08/06 00:50:28;;;;;;;19.55;11.95;;;13.70;99.90;;;;;;5092927;28;20044;-76
2023/08/06 00:52:54;;;;;;;17.88;12.25;;;13.70;99.90;;;;;;5092457;28;20036;-76
2023/08/06 00:55:20;;;;;;;18.95;12.60;;;13.70;99.90;;;;;;5107548;28;20040;-77
2023/08/06 00:57:46;;;;;;;20.65;12.68;;;13.70;99.90;;;;;;5111782;28;20047;-76
2023/08/06 01:00:12;;;;;;;17.50;12.13;;;13.70;99.90;;;;;;5114256;28;20079;-76
2023/08/06 01:02:37;;;;;;;21.00;12.68;;;13.70;99.90;;;;;;5114279;28;20048;-76
2023/08/06 01:05:04;;;;;;;21.45;13.32;;;13.70;99.90;;;;;;5110194;28;20032;-77
2023/08/06 01:07:46;;;;;;;19.58;12.35;;;13.70;99.90;;;;;;5105965;28;20047;-77
2023/08/06 01:10:44;;;;;;;20.90;11.52;;;13.70;99.90;;;;;;5093956;28;20047;-76
2023/08/06 01:13:33;;;;;;;24.52;12.52;;;13.70;99.90;;;;;;5109613;28;20393;-75
2023/08/06 01:16:00;;;;;;;16.88;12.93;;;13.70;99.90;;;;;;5113956;28;20048;-77
2023/08/06 01:18:26;;;;;;;16.90;11.93;;;13.70;99.90;;;;;;5113085;28;20058;-76
2023/08/06 01:20:53;;;;;;;19.60;13.00;;;13.70;99.90;;;;;;5106176;28;20526;-76
2023/08/06 01:23:20;;;;;;;27.02;12.93;;;13.70;99.90;;;;;;5089201;28;20048;-76
2023/08/06 01:26:16;;;;;;;21.25;13.32;;;13.60;99.90;;;;;;5094831;28;20048;-76
2023/08/06 01:29:26;;;;;;;21.63;12.88;;;13.60;99.90;;;;;;5111097;28;20397;-76
2023/08/06 01:31:55;;;;;;;25.30;13.48;;;13.60;99.90;;;;;;5053207;28;20405;-76
2023/08/06 01:34:31;;;;;;;27.02;15.70;;;13.60;99.90;;;;;;5098915;28;20441;-76
2023/08/06 01:36:56;;;;;;;19.02;14.43;;;13.60;99.90;;;;;;5094096;28;20178;-76
2023/08/06 01:39:22;;;;;;;23.25;14.18;;;13.60;99.90;;;;;;5096049;28;20077;-76
2023/08/06 01:41:48;;;;;;;23.95;14.65;;;13.60;99.90;;;;;;5099172;28;20063;-77
2023/08/06 01:44:15;;;;;;;24.73;14.77;;;13.60;99.90;;;;;;5097804;28;20040;-77
2023/08/06 01:46:41;;;;;;;27.38;15.25;;;13.60;99.90;;;;;;5098384;28;20040;-76
2023/08/06 01:49:07;;;;;;;22.02;14.88;;;13.60;99.90;;;;;;5098353;28;20101;-76
2023/08/06 01:51:33;;;;;;;25.52;15.73;;;13.60;99.90;;;;;;5106915;28;20036;-76
2023/08/06 01:53:58;;;;;;;23.60;15.02;;;13.60;99.90;;;;;;5118918;28;20043;-76
2023/08/06 01:56:24;;;;;;;21.60;15.02;;;13.60;99.90;;;;;;5115605;28;20047;-76
2023/08/06 01:58:50;;;;;;;24.10;16.13;;;13.60;99.90;;;;;;5113929;28;20130;-76
2023/08/06 02:01:15;;;;;;;25.80;16.80;;;13.60;99.90;;;;;;5104293;28;20053;-76
2023/08/06 02:03:41;;;;;;;21.50;15.68;;;13.60;99.90;;;;;;5117555;28;20500;-75
2023/08/06 02:06:07;;;;;;;28.30;16.88;;;13.60;99.90;;;;;;5118880;28;20046;-76
2023/08/06 02:08:32;;;;;;;23.27;16.45;;;13.60;99.90;;;;;;5106045;28;20051;-76
2023/08/06 02:10:59;;;;;;;24.50;16.60;;;13.60;99.90;;;;;;5101469;28;20048;-76
2023/08/06 02:13:24;;;;;;;30.30;16.83;;;13.60;99.90;;;;;;5098335;28;20047;-75
2023/08/06 02:15:50;;;;;;;23.25;16.65;;;13.70;99.90;;;;;;5097161;28;20097;-76
2023/08/06 02:18:16;;;;;;;26.85;16.88;;;13.60;99.90;;;;;;5097201;28;20449;-76
2023/08/06 02:20:42;;;;;;;30.20;18.00;;;13.60;99.90;;;;;;5096506;28;20485;-75
2023/08/06 02:23:08;;;;;;;22.40;16.27;;;13.60;99.90;;;;;;5111789;28;20074;-77
2023/08/06 02:25:35;;;;;;;26.10;17.90;;;13.60;99.90;;;;;;5111353;28;20036;-76
2023/08/06 02:28:00;;;;;;;23.90;17.05;;;13.60;99.90;;;;;;5105182;28;20084;-76
2023/08/06 02:30:26;;;;;;;24.27;17.05;;;13.70;99.90;;;;;;5101020;28;20067;-77
2023/08/06 02:32:52;;;;;;;29.98;17.10;;;13.70;99.90;;;;;;5116466;28;20036;-77
2023/08/06 02:35:18;;;;;;;31.17;17.50;;;13.70;99.90;;;;;;5098987;28;20405;-76
2023/08/06 02:37:43;;;;;;;24.67;17.10;;;13.70;99.90;;;;;;5096488;28;20119;-77
2023/08/06 02:40:10;;;;;;;23.67;17.17;;;13.70;99.90;;;;;;5096256;28;20127;-77
2023/08/06 02:42:35;;;;;;;26.48;17.83;;;13.70;99.90;;;;;;5100738;28;20397;-76
2023/08/06 02:45:01;;;;;;;26.48;16.77;;;13.70;99.90;;;;;;5095914;28;20032;-76
2023/08/06 02:47:27;;;;;;;31.00;16.88;;;13.70;99.90;;;;;;5094518;28;20371;-76
2023/08/06 02:49:53;;;;;;;23.77;17.35;;;13.70;99.90;;;;;;5095826;28;20047;-76
2023/08/06 02:52:18;;;;;;;25.23;17.67;;;13.70;99.90;;;;;;5098136;28;20039;-77
2023/08/06 02:54:44;;;;;;;33.35;19.65;;;13.70;99.90;;;;;;5096351;28;20036;-76
2023/08/06 02:57:10;;;;;;;28.40;17.48;;;13.70;99.90;;;;;;5096425;28;20545;-77
2023/08/06 02:59:35;;;;;;;29.40;17.77;;;13.70;99.90;;;;;;5094554;28;20044;-76
2023/08/06 03:02:01;;;;;;;25.15;17.88;;;13.70;99.90;;;;;;5095860;28;20494;-76
2023/08/06 03:04:27;;;;;;;25.50;17.50;;;13.70;99.90;;;;;;5096151;28;20061;-77
2023/08/06 03:06:52;;;;;;;27.23;17.23;;;13.70;99.90;;;;;;5114868;28;20148;-77
2023/08/06 03:09:18;;;;;;;23.02;16.55;;;13.70;99.90;;;;;;5112381;28;20104;-77
2023/08/06 03:11:44;;;;;;;23.27;16.85;;;13.80;99.90;;;;;;5111314;28;20127;-77
2023/08/06 03:14:09;;;;;;;22.15;15.63;;;13.70;99.90;;;;;;5111397;28;20122;-77
2023/08/06 03:16:37;;;;;;;22.98;15.32;;;13.80;99.90;;;;;;5115332;28;20035;-77
2023/08/06 03:19:02;;;;;;;24.48;16.30;;;13.80;99.90;;;;;;5077464;28;20481;-78
2023/08/06 03:21:28;;;;;;;25.25;15.90;;;13.80;99.90;;;;;;5094531;28;20059;-78
2023/08/06 03:23:54;;;;;;;23.27;15.25;;;13.80;99.90;;;;;;5096519;28;20444;-78
2023/08/06 03:26:19;;;;;;;24.85;15.77;;;13.80;99.90;;;;;;5117290;28;20035;-77
2023/08/06 03:28:45;;;;;;;20.60;15.18;;;13.80;99.90;;;;;;5114610;28;20040;-78
2023/08/06 03:31:11;;;;;;;31.60;15.48;;;13.80;99.90;;;;;;5113785;28;20043;-77
2023/08/06 03:33:36;;;;;;;26.52;15.80;;;13.80;99.90;;;;;;5097232;28;20075;-77
2023/08/06 03:36:02;;;;;;;22.75;16.27;;;13.80;99.90;;;;;;5097423;28;20477;-78
2023/08/06 03:38:28;;;;;;;27.80;16.60;;;13.80;99.90;;;;;;5108077;28;20050;-78
2023/08/06 03:40:53;;;;;;;24.35;16.40;;;13.80;99.90;;;;;;5095235;28;20051;-77
2023/08/06 03:43:19;;;;;;;23.85;15.60;;;13.80;99.90;;;;;;5094102;28;20048;-77
2023/08/06 03:45:45;;;;;;;21.25;15.18;;;13.80;99.90;;;;;;5109847;28;20478;-78
2023/08/06 03:48:11;;;;;;;24.17;14.77;;;13.80;99.90;;;;;;5095057;28;20036;-77
2023/08/06 03:50:36;;;;;;;19.30;14.07;;;13.80;99.90;;;;;;5099462;28;20113;-77
2023/08/06 03:53:02;;;;;;;25.08;16.27;;;13.80;99.90;;;;;;5078145;28;20123;-78
2023/08/06 03:55:28;;;;;;;22.95;15.57;;;13.80;99.90;;;;;;5094706;28;20489;-78
2023/08/06 03:57:53;;;;;;;19.63;13.55;;;13.80;99.90;;;;;;5095809;28;20085;-78
2023/08/06 04:00:19;;;;;;;23.00;15.10;;;13.80;99.90;;;;;;5110333;28;20123;-77
2023/08/06 04:02:45;;;;;;;19.17;13.05;;;13.80;99.90;;;;;;5115575;28;20039;-78
2023/08/06 04:05:10;;;;;;;18.42;13.15;;;13.80;99.90;;;;;;5114649;28;20103;-78
2023/08/06 04:07:36;;;;;;;22.27;14.73;;;13.80;99.90;;;;;;5113967;28;20048;-78
2023/08/06 04:10:04;;;;;;;20.35;13.70;;;13.80;99.90;;;;;;5112288;28;20044;-78
2023/08/06 04:12:31;;;;;;;19.40;13.95;;;13.90;99.90;;;;;;5106773;28;20040;-77
2023/08/06 04:15:01;;;;;;;23.02;14.40;;;13.90;99.90;;;;;;5111521;28;20040;-77
2023/08/06 04:17:26;;;;;;;22.42;15.57;;;13.90;99.90;;;;;;5094163;28;20036;-77
2023/08/06 04:19:53;;;;;;;25.65;15.13;;;13.90;99.90;;;;;;5104848;28;20037;-78
2023/08/06 04:22:20;;;;;;;20.40;14.48;;;13.80;99.90;;;;;;5115065;27;20139;-77
2023/08/06 04:24:46;;;;;;;21.70;14.70;;;13.90;99.90;;;;;;5109027;28;20070;-78
2023/08/06 04:27:13;;;;;;;21.67;14.80;;;13.80;99.90;;;;;;5114494;28;20040;-78
2023/08/06 04:29:39;;;;;;;20.88;13.48;;;13.90;99.90;;;;;;5111890;28;20435;-78
2023/08/06 04:32:07;;;;;;;19.08;12.50;;;13.90;99.90;;;;;;5094663;28;20089;-78
2023/08/06 04:34:33;;;;;;;18.15;13.43;;;13.90;99.90;;;;;;5094712;28;20044;-79
2023/08/06 04:37:00;;;;;;;25.00;13.00;;;13.90;99.90;;;;;;5109877;28;20044;-79
2023/08/06 04:39:26;;;;;;;21.05;13.27;;;13.90;99.90;;;;;;5112562;28;20036;-77
2023/08/06 04:41:52;;;;;;;20.00;12.85;;;13.90;99.90;;;;;;5112773;28;20413;-78
2023/08/06 04:44:18;;;;;;;18.00;12.65;;;13.90;99.90;;;;;;5104661;28;20097;-78
2023/08/06 04:46:43;;;;;;;14.35;11.32;;;13.90;99.90;;;;;;5094341;28;20032;-78
2023/08/06 04:49:09;;;;;;;24.73;12.55;;;13.90;99.90;;;;;;5093835;28;20032;-78
2023/08/06 04:51:35;;;;;;;18.33;13.13;;;14.00;99.90;;;;;;5092733;28;20044;-77
2023/08/06 04:54:01;;;;;;;17.33;12.93;;;14.00;99.90;;;;;;5107700;28;20028;-77
2023/08/06 04:56:26;;;;;;;16.10;11.82;;;14.00;99.90;;;;;;5112855;28;20626;-77
2023/08/06 04:58:52;;;;;;;19.67;12.88;;;14.00;99.90;;;;;;5110069;28;20490;-78
2023/08/06 05:01:18;;;;;;;22.23;12.73;;;14.00;99.90;;;;;;5107876;28;20089;-78
2023/08/06 05:03:44;;;;;;;15.90;10.65;;;13.90;99.90;;;;;;5092678;28;20032;-78
2023/08/06 05:06:10;;;;;;;16.02;11.20;;;13.90;99.90;;;;;;5093600;28;20040;-78
2023/08/06 05:08:36;;;;;;;17.65;12.80;;;13.90;99.90;;;;;;5092931;28;20060;-78
2023/08/06 05:11:02;;;;;;;20.35;12.15;;;14.00;99.90;;;;;;5108421;28;20043;-78
2023/08/06 05:13:27;;;;;;;21.50;12.30;;;13.90;99.90;;;;;;5111671;28;20504;-78
2023/08/06 05:15:54;;;;;;;19.67;11.60;;;13.90;99.90;;;;;;5110606;28;20031;-78
2023/08/06 05:18:20;;;;;;;17.63;12.93;;;13.90;99.90;;;;;;5112599;28;20048;-78
2023/08/06 05:20:46;;;;;;;21.40;13.88;;;13.90;99.90;;;;;;5111077;28;20054;-77
2023/08/06 05:23:11;;;;;;;29.48;14.00;;;13.90;99.90;;;;;;5110902;28;20118;-78
2023/08/06 05:25:40;;;;;;;24.52;13.57;;;13.90;99.90;;;;;;5092155;28;20062;-78
2023/08/06 05:28:06;;;;;;;18.98;12.98;;;13.90;99.90;;;;;;5093846;28;20038;-77
2023/08/06 05:30:32;;;;;;;22.58;14.43;;;13.90;99.90;;;;;;5106989;28;20461;-77
2023/08/06 05:32:57;;;;;;;20.25;12.38;;;13.90;99.90;;;;;;5113432;28;20394;-77
2023/08/06 05:35:23;;;;;;;20.08;13.07;;;13.90;99.90;;;;;;5114399;28;20482;-77
2023/08/06 05:37:53;;;;;;;24.52;14.73;;;13.90;99.90;;;;;;5096485;28;20058;-78
2023/08/06 05:40:18;;;;;;;19.27;13.95;;;13.90;99.90;;;;;;5092035;28;20040;-77
2023/08/06 05:42:44;;;;;;;19.45;13.57;;;14.00;99.90;;;;;;5108521;28;20100;-77
2023/08/06 05:45:10;;;;;;;22.88;14.90;;;14.00;99.90;;;;;;5103095;28;20494;-77
2023/08/06 05:47:36;;;;;;;21.50;15.13;;;14.10;99.90;;;;;;5093130;28;20509;-77
2023/08/06 05:50:01;;;;;;;21.65;14.15;;;14.20;99.90;;;;;;5093460;28;20044;-77
2023/08/06 05:52:27;;;;;;;23.63;13.20;;;14.30;99.90;;;;;;5094071;28;20040;-77
2023/08/06 05:54:53;;;;;;;21.92;14.25;;;14.40;99.90;;;;;;5108212;28;20040;-76
2023/08/06 05:57:18;;;;;;;15.55;12.43;;;14.50;99.90;;;;;;5106396;28;20076;-77
2023/08/06 05:59:47;;;;;;;16.38;12.13;;;14.50;99.90;;;;;;5096990;28;20558;-77
2023/08/06 06:02:13;;;;;;;20.38;12.63;;;14.60;99.90;;;;;;5110296;28;20047;-77
2023/08/06 06:04:40;;;;;;;14.70;11.50;;;14.50;99.90;;;;;;5100158;28;20034;-77
2023/08/06 06:07:06;;;;;;;18.70;11.60;;;14.50;99.90;;;;;;5112248;28;20114;-77
2023/08/06 06:09:32;;;;;;;18.58;11.20;;;14.60;99.90;;;;;;5103383;28;20128;-78
2023/08/06 06:11:57;;;;;;;17.50;11.70;;;14.60;99.90;;;;;;5092138;28;20040;-76
2023/08/06 06:14:23;;;;;;;16.70;10.77;;;14.60;99.90;;;;;;5096229;28;20110;-77
2023/08/06 06:16:49;;;;;;;26.63;12.45;;;14.70;99.90;;;;;;5112310;28;20043;-76
2023/08/06 06:19:14;;;;;;;13.70;9.57;;;14.80;99.90;;;;;;5106509;28;20038;-76
2023/08/06 06:21:40;;;;;;;18.35;11.23;;;14.80;99.90;;;;;;5091332;28;20048;-77
2023/08/06 06:24:06;;;;;;;17.48;10.00;;;14.90;99.90;;;;;;5103879;28;20082;-78
2023/08/06 06:26:32;;;;;;;11.32;9.13;;;14.90;99.90;;;;;;5112168;28;20494;-78
2023/08/06 06:28:58;;;;;;;15.93;10.38;;;15.00;99.90;;;;;;5095199;28;20084;-78
2023/08/06 06:31:24;;;;;;;13.02;10.68;;;15.00;99.90;;;;;;5116277;28;20044;-78
2023/08/06 06:33:49;;;;;;;13.57;9.20;;;15.10;99.90;;;;;;5115324;28;20032;-78
2023/08/06 06:36:15;;;;;;;16.08;10.05;;;15.10;99.90;;;;;;5104062;28;20581;-78
2023/08/06 06:38:41;;;;;;;9.93;8.00;;;15.20;99.90;;;;;;5095636;28;20492;-78
2023/08/06 06:41:06;;;;;;;12.65;9.20;;;15.20;99.90;;;;;;5096460;28;20036;-77
2023/08/06 06:43:32;;;;;;;10.68;8.25;;;15.20;99.90;;;;;;5112137;28;20123;-77
2023/08/06 06:46:01;;;;;;;13.95;8.85;;;15.30;99.90;;;;;;5114966;28;20496;-77
2023/08/06 06:48:31;;;;;;;14.73;8.40;;;15.30;99.90;;;;;;5116379;28;20408;-77
2023/08/06 06:50:56;;;;;;;11.98;8.10;;;15.40;99.90;;;;;;5115885;28;20044;-78
2023/08/06 06:53:27;;;;;;;9.90;7.93;;;15.40;99.90;;;;;;5097949;28;20048;-78
2023/08/06 06:56:01;;;;;;;10.50;7.60;;;15.50;99.90;;;;;;5109829;28;20050;-78
2023/08/06 06:58:28;;;;;;;10.93;7.95;;;15.50;99.90;;;;;;5101122;28;20044;-79
2023/08/06 07:00:53;;;;;;;13.27;8.60;;;15.60;99.90;;;;;;5106434;28;20046;-78
2023/08/06 07:03:20;;;;;;;12.88;8.27;;;15.60;99.90;;;;;;5113826;28;20044;-78
2023/08/06 07:05:46;;;;;;;11.85;7.85;;;15.70;99.90;;;;;;5097713;28;20067;-78
2023/08/06 07:08:12;;;;;;;14.30;7.95;;;15.70;99.90;;;;;;5114630;28;20426;-79
2023/08/06 07:10:38;;;;;;;12.00;8.05;;;15.70;99.90;;;;;;5116929;28;20413;-78
2023/08/06 07:13:04;;;;;;;13.35;8.00;;;15.80;99.90;;;;;;5093855;28;20403;-78
2023/08/06 07:15:32;;;;;;;12.55;7.53;;;15.80;99.90;;;;;;5114877;28;20074;-78
2023/08/06 07:17:58;;;;;;;11.82;8.35;;;15.90;99.90;;;;;;5103632;28;20072;-78
2023/08/06 07:20:24;;;;;;;11.55;7.78;;;15.90;99.90;;;;;;5099541;28;20458;-78
2023/08/06 07:22:50;;;;;;;12.30;7.50;;;15.90;99.90;;;;;;5099372;28;20063;-78
2023/08/06 07:25:16;;;;;;;11.13;7.72;;;16.00;99.90;;;;;;5105090;28;20122;-78
2023/08/06 07:27:42;;;;;;;8.07;6.55;;;16.10;99.90;;;;;;5113866;28;20088;-78
2023/08/06 07:30:08;;;;;;;7.72;6.65;;;16.20;99.90;;;;;;5107631;28;20044;-78
2023/08/06 07:32:35;;;;;;;9.30;7.13;;;16.20;99.90;;;;;;5118432;28;20496;-79
2023/08/06 07:35:02;;;;;;;9.00;6.13;;;16.30;99.90;;;;;;5119349;28;20126;-80
2023/08/06 07:37:28;;;;;;;6.55;5.53;;;16.40;99.90;;;;;;5114050;28;20066;-79
2023/08/06 07:39:57;;;;;;;8.38;5.93;;;16.40;99.90;;;;;;5122816;28;20118;-80
2023/08/06 07:42:22;;;;;;;8.27;5.82;;;16.70;99.90;;;;;;5124650;28;20044;-80
2023/08/06 07:44:56;;;;;;;8.02;4.90;;;16.80;99.90;;;;;;5126484;28;20047;-79
2023/08/06 07:47:22;;;;;;;7.90;5.88;;;17.00;99.90;;;;;;5121165;28;20043;-79
2023/08/06 07:49:48;;;;;;;8.52;5.75;;;17.20;99.90;;;;;;5119898;28;20047;-79
2023/08/06 07:52:14;;;;;;;8.25;5.43;;;17.30;99.90;;;;;;5102783;28;20046;-79
2023/08/06 07:54:40;;;;;;;9.35;6.53;;;17.30;99.90;;;;;;5102085;28;20047;-79
2023/08/06 07:57:06;;;;;;;11.27;5.85;;;17.40;99.90;;;;;;5101534;28;20101;-79
2023/08/06 07:59:32;;;;;;;7.15;5.95;;;17.40;99.90;;;;;;5102824;28;20047;-79
2023/08/06 08:01:57;;;;;;;9.13;6.18;;;17.30;99.90;;;;;;5103556;28;20071;-78
2023/08/06 08:04:24;;;;;;;7.95;5.72;;;17.30;99.90;;;;;;5117597;28;20050;-78
2023/08/06 08:06:52;;;;;;;7.45;6.22;;;17.40;99.90;;;;;;5124570;28;20035;-79
2023/08/06 08:09:18;;;;;;;6.97;5.57;;;17.50;99.90;;;;;;5123528;28;20085;-79
2023/08/06 08:11:44;;;;;;;8.20;6.22;;;17.50;99.90;;;;;;5107917;28;20068;-79
2023/08/06 08:14:09;;;;;;;7.03;5.65;;;17.60;99.90;;;;;;5102581;28;20521;-78
2023/08/06 08:16:38;;;;;;;8.02;5.40;;;17.60;99.90;;;;;;5098266;28;20044;-78
2023/08/06 08:19:04;;;;;;;6.80;5.32;;;17.70;99.90;;;;;;5105107;28;20054;-78
2023/08/06 08:21:29;;;;;;;9.50;5.53;;;17.80;99.90;;;;;;5119661;28;20055;-77
2023/08/06 08:23:55;;;;;;;7.45;5.75;;;17.80;99.90;;;;;;5117130;28;20051;-78
2023/08/06 08:26:21;;;;;;;8.73;4.97;;;17.80;99.90;;;;;;5121935;28;20039;-78
2023/08/06 08:28:46;;;;;;;6.65;5.53;;;17.80;99.90;;;;;;5117167;28;20036;-77
2023/08/06 08:31:12;;;;;;;9.52;5.57;;;17.80;99.90;;;;;;5114226;28;20039;-76
2023/08/06 08:33:38;;;;;;;8.45;4.90;;;17.90;99.90;;;;;;5097930;28;20071;-77
2023/08/06 08:36:04;;;;;;;5.72;4.50;;;18.00;99.90;;;;;;5097738;28;20039;-77
2023/08/06 08:38:30;;;;;;;9.25;4.00;;;18.10;99.90;;;;;;5095956;28;20040;-78
2023/08/06 08:40:57;;;;;;;6.30;4.25;;;18.20;99.90;;;;;;5097246;28;20048;-77
2023/08/06 08:43:23;;;;;;;8.77;4.20;;;18.20;99.90;;;;;;5093164;28;20036;-76
2023/08/06 08:45:55;;;;;;;7.35;4.22;;;18.40;99.90;;;;;;5103291;28;20044;-76
2023/08/06 08:48:22;;;;;;;7.22;4.03;;;18.50;99.90;;;;;;5093000;28;20490;-75
2023/08/06 08:50:49;;;;;;;5.90;3.53;;;18.50;99.90;;;;;;5106104;28;20512;-77
2023/08/06 08:53:16;;;;;;;5.53;3.17;;;18.50;99.90;;;;;;5096693;28;20044;-77
2023/08/06 08:55:44;;;;;;;6.00;3.88;;;18.50;99.90;;;;;;5093977;28;20040;-76
2023/08/06 08:58:10;;;;;;;7.45;4.07;;;18.50;99.90;;;;;;5107095;28;20110;-77
2023/08/06 09:00:38;;;;;;;5.43;3.80;;;18.50;99.90;;;;;;5106008;28;20051;-77
2023/08/06 09:03:06;;;;;;;8.32;3.20;;;18.60;99.90;;;;;;5115657;28;20035;-78
2023/08/06 09:05:33;;;;;;;4.43;3.28;;;18.60;99.90;;;;;;5115446;28;20075;-79
2023/08/06 09:08:03;;;;;;;4.63;3.40;;;18.70;99.90;;;;;;5112299;28;20375;-78
2023/08/06 09:10:31;;;;;;;3.67;2.95;;;18.70;99.90;;;;;;5112186;28;20058;-77
2023/08/06 09:12:58;;;;;;;4.20;3.13;;;18.80;99.90;;;;;;5113515;28;20082;-77
2023/08/06 09:15:27;;;;;;;5.07;3.58;;;18.90;99.90;;;;;;5111585;28;20081;-77
2023/08/06 09:17:53;;;;;;;4.15;3.08;;;18.90;99.90;;;;;;5097614;28;20127;-78
2023/08/06 09:20:20;;;;;;;5.07;3.10;;;19.00;99.90;;;;;;5094441;28;20052;-77
2023/08/06 09:22:47;;;;;;;5.53;3.70;;;19.10;99.90;;;;;;5095410;28;20047;-77
2023/08/06 09:25:24;;;;;;;7.72;3.53;;;19.20;99.90;;;;;;5094438;28;20048;-78
2023/08/06 09:27:54;;;;;;;4.38;2.53;;;19.20;99.90;;;;;;5094415;28;20119;-77
2023/08/06 09:30:31;;;;;;;5.35;2.53;;;19.40;99.90;;;;;;5113538;28;20043;-76
2023/08/06 09:32:56;;;;;;;3.85;2.45;;;19.40;99.90;;;;;;5113665;28;20050;-78
2023/08/06 09:35:22;;;;;;;4.68;2.33;;;19.40;99.90;;;;;;5112723;28;20031;-77
2023/08/06 09:37:48;;;;;;;3.38;2.47;;;19.30;99.90;;;;;;5113459;28;20050;-77
2023/08/06 09:40:34;;;;;;;3.70;2.13;;;19.40;99.90;;;;;;5116280;28;20046;-77
2023/08/06 09:43:00;;;;;;;3.25;2.17;;;19.60;99.90;;;;;;5110909;28;20048;-77
2023/08/06 09:45:36;;;;;;;6.60;2.65;;;19.70;99.90;;;;;;5112255;28;20039;-78
2023/08/06 09:48:07;;;;;;;3.10;2.30;;;19.80;99.90;;;;;;5101633;28;20055;-77
2023/08/06 09:50:36;;;;;;;4.03;2.90;;;20.10;99.90;;;;;;5083398;28;20052;-78
2023/08/06 09:53:03;;;;;;;5.07;2.20;;;20.20;99.90;;;;;;5105410;28;20044;-77
2023/08/06 09:55:29;;;;;;;3.15;2.30;;;20.10;99.90;;;;;;5102745;28;20556;-78
2023/08/06 09:57:55;;;;;;;3.58;2.05;;;20.00;99.90;;;;;;5100405;28;20075;-78
2023/08/06 10:00:23;;;;;;;3.67;2.50;;;20.10;99.90;;;;;;5108613;28;20040;-77
2023/08/06 10:02:54;;;;;;;3.45;1.90;;;20.00;99.90;;;;;;5126499;28;20043;-78
2023/08/06 10:05:20;;;;;;;4.60;2.25;;;20.10;99.90;;;;;;5124625;28;20377;-78
2023/08/06 10:07:48;;;;;;;3.35;2.00;;;20.30;99.90;;;;;;5102690;28;20052;-79
2023/08/06 10:10:14;;;;;;;4.80;2.10;;;20.40;99.90;;;;;;5105683;28;20044;-80
2023/08/06 10:12:46;;;;;;;3.38;2.00;;;20.60;99.90;;;;;;5119850;28;21669;-78
2023/08/06 10:15:15;;;;;;;2.95;1.92;;;20.50;99.90;;;;;;5104990;28;20056;-80
2023/08/06 10:17:45;;;;;;;5.50;2.00;;;20.50;99.90;;;;;;5124216;28;20050;-79
2023/08/06 10:20:11;;;;;;;3.10;2.10;;;20.60;99.90;;;;;;5124826;28;20497;-79
2023/08/06 10:22:44;;;;;;;7.68;2.15;;;20.80;99.90;;;;;;5106975;28;20095;-79
2023/08/06 10:25:15;;;;;;;4.70;1.98;;;20.90;99.90;;;;;;5107246;28;20134;-78
2023/08/06 10:27:54;;;;;;;3.65;2.00;;;21.00;99.90;;;;;;5105686;28;20052;-79
2023/08/06 10:30:31;;;;;;;3.65;2.20;;;21.20;99.90;;;;;;5124548;28;20055;-79
2023/08/06 10:33:02;;;;;;;4.18;2.30;;;21.40;99.90;;;;;;5125989;28;20525;-79
2023/08/06 10:35:45;;;;;;;3.03;2.30;;;21.40;99.90;;;;;;5123815;28;20047;-79
2023/08/06 10:38:25;;;;;;;4.82;2.28;;;21.30;99.90;;;;;;5117532;28;20124;-79
2023/08/06 10:40:54;;;;;;;5.63;2.28;;;21.10;99.90;;;;;;5101614;28;20043;-78
2023/08/06 10:43:28;;;;;;;4.45;2.42;;;21.00;99.90;;;;;;5113744;28;20142;-79
2023/08/06 10:45:55;;;;;;;2.83;2.05;;;20.90;99.90;;;;;;5125164;28;20040;-80
2023/08/06 10:48:41;;;;;;;3.83;2.20;;;20.90;99.90;;;;;;5113476;28;20052;-79
2023/08/06 10:51:11;;;;;;;6.13;2.00;;;21.00;99.90;;;;;;5106871;28;20114;-79
2023/08/06 10:53:37;;;;;;;3.95;2.17;;;21.00;99.90;;;;;;5128902;28;20039;-80
2023/08/06 10:56:16;;;;;;;3.72;1.92;;;21.00;99.90;;;;;;5126924;28;20039;-79
2023/08/06 10:58:43;;;;;;;3.80;1.98;;;21.10;99.90;;;;;;5132711;28;20040;-79
2023/08/06 11:01:09;;;;;;;2.75;1.85;;;21.10;99.90;;;;;;5128963;28;20036;-79
2023/08/06 11:03:34;;;;;;;2.97;1.88;;;21.20;99.90;;;;;;5131936;28;20092;-80
2023/08/06 11:06:00;;;;;;;2.55;1.70;;;21.40;99.90;;;;;;5127287;28;20031;-80
2023/08/06 11:08:27;;;;;;;4.22;2.20;;;21.50;99.90;;;;;;5129705;27;20048;-79
2023/08/06 11:10:53;;;;;;;2.53;1.70;;;21.60;99.90;;;;;;5098167;28;20108;-80
2023/08/06 11:13:20;;;;;;;3.20;2.10;;;21.50;99.90;;;;;;5105921;28;20068;-80
2023/08/06 11:15:46;;;;;;;2.53;1.90;;;21.30;99.90;;;;;;5100877;28;20098;-80
2023/08/06 11:18:12;;;;;;;6.15;2.17;;;21.20;99.90;;;;;;5113921;28;20040;-80
2023/08/06 11:20:39;;;;;;;4.05;1.80;;;21.20;99.90;;;;;;5099762;28;20056;-78
2023/08/06 11:23:05;;;;;;;3.97;2.00;;;21.20;99.90;;;;;;5104553;28;20062;-78
2023/08/06 11:25:31;;;;;;;3.83;2.00;;;21.00;99.90;;;;;;5124020;28;20131;-79
2023/08/06 11:27:56;;;;;;;3.00;2.05;;;21.00;99.90;;;;;;5107757;28;20475;-78
2023/08/06 11:30:22;;;;;;;4.13;2.10;;;20.90;99.90;;;;;;5119213;28;20040;-78
2023/08/06 11:32:48;;;;;;;3.33;1.90;;;21.00;99.90;;;;;;5115808;28;20036;-80
2023/08/06 11:35:17;;;;;;;5.72;1.98;;;21.00;99.90;;;;;;5099552;28;20172;-80
2023/08/06 11:37:46;;;;;;;4.47;2.42;;;20.90;99.90;;;;;;5100307;28;20040;-79
2023/08/06 11:40:14;;;;;;;5.70;1.98;;;20.90;99.90;;;;;;5082441;28;20040;-79
2023/08/06 11:42:40;;;;;;;4.40;2.15;;;20.90;99.90;;;;;;5098780;28;20044;-79
2023/08/06 11:45:06;;;;;;;5.30;2.20;;;21.00;99.90;;;;;;5100524;28;20036;-78
2023/08/06 11:47:32;;;;;;;4.90;2.33;;;21.10;99.90;;;;;;5099757;28;20032;-79
2023/08/06 11:49:57;;;;;;;2.75;2.10;;;21.10;99.90;;;;;;5103026;28;20040;-78
2023/08/06 11:52:24;;;;;;;3.20;2.10;;;21.20;99.90;;;;;;5096576;28;20047;-79
2023/08/06 11:55:07;;;;;;;3.33;2.08;;;21.30;99.90;;;;;;5091007;28;20043;-79
2023/08/06 11:57:37;;;;;;;3.00;1.95;;;21.40;99.90;;;;;;5118337;28;20039;-79
2023/08/06 12:00:09;;;;;;;2.47;1.80;;;21.40;99.90;;;;;;5103201;28;20044;-79
2023/08/06 12:02:36;;;;;;;3.58;2.00;;;21.30;99.90;;;;;;5097978;28;20083;-79
2023/08/06 12:05:11;;;;;;;2.88;1.85;;;21.20;99.90;;;;;;5102440;28;20093;-80
2023/08/06 12:07:44;;;;;;;3.25;2.03;;;20.90;99.90;;;;;;5114626;28;20051;-79
2023/08/06 12:10:12;;;;;;;3.67;2.17;;;20.90;99.90;;;;;;5100000;28;20044;-78
2023/08/06 12:12:38;;;;;;;3.60;2.13;;;21.00;99.90;;;;;;5119729;28;20068;-80
2023/08/06 12:15:06;;;;;;;3.75;1.98;;;20.90;99.90;;;;;;5119586;28;20089;-79
2023/08/06 12:17:32;;;;;;;6.18;2.10;;;20.90;99.90;;;;;;5122405;28;20044;-79
2023/08/06 12:19:58;;;;;;;3.90;2.17;;;20.90;99.90;;;;;;5101344;28;20047;-79
2023/08/06 12:22:24;;;;;;;3.50;2.03;;;20.90;99.90;;;;;;5103478;28;20043;-80
2023/08/06 12:24:50;;;;;;;4.80;2.20;;;21.00;99.90;;;;;;5122907;28;20040;-79
2023/08/06 12:27:18;;;;;;;7.40;2.22;;;20.90;99.90;;;;;;5118112;28;20095;-79
2023/08/06 12:29:48;;;;;;;6.40;2.08;;;20.80;99.90;;;;;;5120486;28;20035;-79
2023/08/06 12:32:14;;;;;;;3.08;2.05;;;20.80;99.90;;;;;;5120842;28;20040;-79
2023/08/06 12:34:42;;;;;;;3.50;1.85;;;20.80;99.90;;;;;;5118836;28;20046;-81
2023/08/06 12:37:08;;;;;;;4.10;2.13;;;20.90;99.90;;;;;;5120688;28;20047;-82